Time;durP1;ratioP1;P1;durP2;ratioP2;P2;SDS_P1;SDS_P2;PMS_P1;PMS_P2;Temp;Humidity;BMP_temperature;BMP_pressure;BME280_temperature;BME280_humidity;BME280_pressure;Samples;Min_cycle;Max_cycle;Signal;HPM_P1;HPM_P2
2023/03/08 00:01:45;;;;;;;13.55;1.90;;;;;;;;;;5005588;28;20580;-63
2023/03/08 00:04:15;;;;;;;8.98;1.80;;;;;;;;;;5005971;28;20065;-64
2023/03/08 00:06:45;;;;;;;7.00;1.67;;;;;;;;;;5006202;28;20061;-63
2023/03/08 00:09:15;;;;;;;5.93;2.10;;;;;;;;;;5007304;28;20053;-63
2023/03/08 00:11:45;;;;;;;9.65;2.10;;;;;;;;;;4970194;28;20077;-63
2023/03/08 00:14:15;;;;;;;11.75;2.33;;;;;;;;;;5029926;28;20401;-63
2023/03/08 00:16:45;;;;;;;9.38;2.08;;;;;;;;;;4980572;28;20579;-63
2023/03/08 00:19:14;;;;;;;8.20;2.13;;;;;;;;;;5027849;28;20076;-64
2023/03/08 00:21:44;;;;;;;7.55;2.45;;;;;;;;;;5025666;28;20566;-63
2023/03/08 00:24:15;;;;;;;5.50;2.20;;;;;;;;;;4991720;28;20064;-63
2023/03/08 00:26:45;;;;;;;10.05;1.88;;;;;;;;;;5025381;28;20061;-64
2023/03/08 00:29:15;;;;;;;4.75;1.50;;;;;;;;;;5025359;28;20057;-64
2023/03/08 00:31:45;;;;;;;5.57;1.80;;;;;;;;;;4988612;28;20050;-64
2023/03/08 00:34:16;;;;;;;8.73;2.08;;;;;;;;;;4949286;28;20102;-63
2023/03/08 00:36:46;;;;;;;11.35;3.13;;;;;;;;;;4970479;28;20062;-63
2023/03/08 00:39:17;;;;;;;8.75;2.63;;;;;;;;;;4970260;28;20066;-63
2023/03/08 00:41:47;;;;;;;14.15;2.72;;;;;;;;;;4967398;28;20059;-64
2023/03/08 00:44:17;;;;;;;6.32;1.80;;;;;;;;;;4966090;28;20066;-63
2023/03/08 00:46:47;;;;;;;6.97;2.10;;;;;;;;;;4966178;28;20490;-63
2023/03/08 00:49:17;;;;;;;6.05;2.13;;;;;;;;;;4949409;28;20055;-63
2023/03/08 00:51:46;;;;;;;5.55;1.73;;;;;;;;;;4965449;28;20074;-63
2023/03/08 00:54:16;;;;;;;5.15;1.50;;;;;;;;;;4969890;28;20411;-63
2023/03/08 00:56:46;;;;;;;6.88;1.80;;;;;;;;;;4970164;28;20050;-62
2023/03/08 00:59:16;;;;;;;4.22;1.50;;;;;;;;;;4969815;28;20174;-63
2023/03/08 01:01:46;;;;;;;4.55;1.63;;;;;;;;;;4970264;28;20062;-63
2023/03/08 01:04:16;;;;;;;8.60;1.67;;;;;;;;;;4968845;28;20053;-63
2023/03/08 01:06:45;;;;;;;7.43;1.95;;;;;;;;;;4984879;28;20058;-63
2023/03/08 01:09:15;;;;;;;4.88;1.95;;;;;;;;;;4965397;28;20408;-63
2023/03/08 01:11:45;;;;;;;9.35;2.10;;;;;;;;;;4965615;28;20853;-63
2023/03/08 01:14:15;;;;;;;8.57;1.92;;;;;;;;;;4966813;28;20062;-63
2023/03/08 01:16:45;;;;;;;6.95;1.92;;;;;;;;;;4970042;28;20054;-63
2023/03/08 01:19:14;;;;;;;6.00;1.75;;;;;;;;;;4950395;28;20519;-63
2023/03/08 01:21:44;;;;;;;5.78;1.65;;;;;;;;;;4950109;29;20416;-63
2023/03/08 01:24:14;;;;;;;8.95;1.90;;;;;;;;;;4948735;28;20055;-63
2023/03/08 01:26:44;;;;;;;8.60;1.63;;;;;;;;;;4908168;29;20060;-63
2023/03/08 01:29:13;;;;;;;7.47;2.10;;;;;;;;;;4888499;29;20429;-63
2023/03/08 01:31:43;;;;;;;7.43;1.85;;;;;;;;;;4866235;29;20050;-63
2023/03/08 01:34:13;;;;;;;6.13;1.52;;;;;;;;;;4870034;29;20061;-63
2023/03/08 01:36:43;;;;;;;7.57;1.70;;;;;;;;;;4891095;29;20064;-65
2023/03/08 01:39:13;;;;;;;6.93;1.70;;;;;;;;;;4874045;29;20049;-64
2023/03/08 01:41:44;;;;;;;10.63;1.63;;;;;;;;;;4889358;29;20462;-63
2023/03/08 01:44:17;;;;;;;8.68;2.20;;;;;;;;;;4889022;29;20526;-63
2023/03/08 01:46:47;;;;;;;7.97;1.63;;;;;;;;;;4909292;29;20063;-64
2023/03/08 01:49:28;;;;;;;10.07;2.72;;;;;;;;;;4926645;29;20060;-63
2023/03/08 01:52:05;;;;;;;7.13;1.52;;;;;;;;;;4925611;29;20067;-63
2023/03/08 01:54:46;;;;;;;5.78;1.58;;;;;;;;;;4907221;29;20059;-63
2023/03/08 01:57:16;;;;;;;9.18;1.45;;;;;;;;;;4895922;29;20101;-63
2023/03/08 01:59:48;;;;;;;11.50;1.50;;;;;;;;;;4891524;29;20052;-63
2023/03/08 02:02:28;;;;;;;6.45;1.45;;;;;;;;;;4898689;29;20057;-63
2023/03/08 02:04:59;;;;;;;7.50;1.83;;;;;;;;;;4886961;29;20055;-64
2023/03/08 02:07:30;;;;;;;10.05;1.88;;;;;;;;;;4842289;29;20055;-63
2023/03/08 02:10:01;;;;;;;6.90;1.33;;;;;;;;;;4856256;29;20925;-63
2023/03/08 02:12:32;;;;;;;7.38;1.83;;;;;;;;;;4855511;29;20433;-63
2023/03/08 02:15:04;;;;;;;11.82;1.90;;;;;;;;;;4851179;29;20076;-63
2023/03/08 02:17:39;;;;;;;6.22;1.75;;;;;;;;;;4832160;29;20073;-63
2023/03/08 02:20:24;;;;;;;11.25;1.63;;;;;;;;;;4840861;29;20073;-63
2023/03/08 02:23:12;;;;;;;4.82;1.77;;;;;;;;;;4855253;29;20072;-63
2023/03/08 02:25:59;;;;;;;5.18;1.63;;;;;;;;;;4855193;29;20110;-64
2023/03/08 02:28:32;;;;;;;4.25;1.50;;;;;;;;;;4885864;29;20163;-63
2023/03/08 02:31:02;;;;;;;7.40;2.03;;;;;;;;;;4870352;29;20522;-63
2023/03/08 02:33:33;;;;;;;10.93;1.67;;;;;;;;;;4851157;29;20449;-64
2023/03/08 02:36:06;;;;;;;5.60;1.95;;;;;;;;;;4865786;29;20092;-63
2023/03/08 02:38:36;;;;;;;5.93;1.98;;;;;;;;;;4835820;29;20061;-64
2023/03/08 02:41:06;;;;;;;8.02;1.83;;;;;;;;;;4899137;29;20055;-63
2023/03/08 02:43:36;;;;;;;4.35;1.52;;;;;;;;;;4974429;28;20410;-63
2023/03/08 02:46:06;;;;;;;4.57;1.73;;;;;;;;;;4988742;28;20050;-63
2023/03/08 02:48:36;;;;;;;8.60;1.52;;;;;;;;;;5000922;28;20068;-64
2023/03/08 02:51:06;;;;;;;5.90;1.90;;;;;;;;;;5012891;28;20045;-63
2023/03/08 02:53:37;;;;;;;10.27;1.85;;;;;;;;;;5009421;28;20536;-63
2023/03/08 02:56:07;;;;;;;8.27;1.58;;;;;;;;;;5023050;28;20046;-63
2023/03/08 02:58:37;;;;;;;6.80;1.30;;;;;;;;;;4989738;28;20053;-63
2023/03/08 03:01:13;;;;;;;5.32;1.63;;;;;;;;;;5022809;28;20080;-63
2023/03/08 03:03:43;;;;;;;7.70;1.85;;;;;;;;;;5005367;28;20057;-63
2023/03/08 03:06:19;;;;;;;4.75;1.90;;;;;;;;;;5006725;28;20522;-65
2023/03/08 03:08:52;;;;;;;5.57;1.50;;;;;;;;;;4951754;28;20062;-64
2023/03/08 03:11:23;;;;;;;7.18;1.55;;;;;;;;;;4951095;28;20091;-64
2023/03/08 03:13:56;;;;;;;4.80;1.60;;;;;;;;;;4879812;29;20055;-64
2023/03/08 03:16:31;;;;;;;4.22;1.58;;;;;;;;;;4872945;29;20841;-63
2023/03/08 03:19:01;;;;;;;5.93;1.65;;;;;;;;;;4861985;29;20304;-64
2023/03/08 03:21:31;;;;;;;4.38;1.58;;;;;;;;;;4827408;29;20069;-64
2023/03/08 03:24:01;;;;;;;6.55;1.75;;;;;;;;;;4823056;29;20068;-63
2023/03/08 03:26:42;;;;;;;4.40;1.70;;;;;;;;;;4894071;29;20056;-64
2023/03/08 03:29:12;;;;;;;4.70;1.67;;;;;;;;;;4857637;29;20057;-63
2023/03/08 03:31:44;;;;;;;4.45;1.63;;;;;;;;;;4876820;29;20053;-64
2023/03/08 03:34:16;;;;;;;5.82;1.65;;;;;;;;;;4888717;29;20063;-64
2023/03/08 03:36:48;;;;;;;6.82;1.77;;;;;;;;;;4909809;29;20086;-64
2023/03/08 03:39:18;;;;;;;5.32;1.60;;;;;;;;;;4894267;29;20064;-63
2023/03/08 03:41:49;;;;;;;5.68;1.83;;;;;;;;;;4897208;29;20063;-65
2023/03/08 03:44:19;;;;;;;6.35;1.95;;;;;;;;;;4885036;29;20442;-63
2023/03/08 03:46:49;;;;;;;4.30;1.60;;;;;;;;;;4870914;29;20057;-63
2023/03/08 03:49:24;;;;;;;4.18;1.70;;;;;;;;;;4883159;29;20061;-63
2023/03/08 03:51:54;;;;;;;4.90;1.13;;;;;;;;;;4872804;29;20081;-63
2023/03/08 03:54:30;;;;;;;3.53;1.52;;;;;;;;;;4875514;29;20389;-63
2023/03/08 03:57:00;;;;;;;4.65;1.35;;;;;;;;;;4890061;29;20067;-64
2023/03/08 03:59:34;;;;;;;9.55;1.40;;;;;;;;;;4872265;29;20064;-63
2023/03/08 04:02:04;;;;;;;4.68;1.23;;;;;;;;;;4897428;29;20056;-64
2023/03/08 04:04:42;;;;;;;9.75;1.65;;;;;;;;;;4928318;29;20063;-64
2023/03/08 04:07:14;;;;;;;4.70;1.70;;;;;;;;;;4916365;29;20079;-64
2023/03/08 04:09:51;;;;;;;8.65;1.55;;;;;;;;;;4886081;29;20561;-63
2023/03/08 04:12:21;;;;;;;3.85;1.20;;;;;;;;;;4912955;29;20068;-64
2023/03/08 04:14:53;;;;;;;6.22;1.50;;;;;;;;;;4937442;29;20054;-64
2023/03/08 04:17:28;;;;;;;4.13;1.35;;;;;;;;;;4935905;29;20055;-63
2023/03/08 04:19:58;;;;;;;3.97;1.42;;;;;;;;;;4928007;29;20794;-64
2023/03/08 04:22:33;;;;;;;8.70;1.52;;;;;;;;;;4894738;29;20071;-64
2023/03/08 04:25:10;;;;;;;8.05;1.48;;;;;;;;;;4875133;29;20404;-63
2023/03/08 04:27:53;;;;;;;5.18;1.42;;;;;;;;;;4889771;29;20065;-63
2023/03/08 04:30:23;;;;;;;7.90;1.77;;;;;;;;;;4861957;29;20069;-63
2023/03/08 04:32:55;;;;;;;3.00;1.15;;;;;;;;;;4838532;29;20055;-63
2023/03/08 04:35:33;;;;;;;3.05;1.30;;;;;;;;;;4825142;29;20086;-63
2023/03/08 04:38:03;;;;;;;7.55;1.48;;;;;;;;;;4816838;29;20062;-63
2023/03/08 04:41:00;;;;;;;4.63;1.85;;;;;;;;;;4836043;29;20053;-63
2023/03/08 04:43:24;;;;;;;7.75;1.35;;;;;;;;;;4852513;29;20068;-63
2023/03/08 04:45:54;;;;;;;4.13;1.45;;;;;;;;;;4818894;29;20067;-63
2023/03/08 04:48:24;;;;;;;6.50;1.45;;;;;;;;;;4806702;29;20058;-63
2023/03/08 04:50:59;;;;;;;7.25;1.40;;;;;;;;;;4818759;29;20070;-63
2023/03/08 04:53:31;;;;;;;6.97;1.55;;;;;;;;;;4839796;29;20077;-63
2023/03/08 04:56:01;;;;;;;4.00;1.20;;;;;;;;;;4871770;29;20506;-63
2023/03/08 04:58:32;;;;;;;7.85;1.80;;;;;;;;;;4903155;29;20056;-63
2023/03/08 05:01:14;;;;;;;4.35;1.70;;;;;;;;;;4936812;29;20595;-64
2023/03/08 05:03:48;;;;;;;9.93;1.75;;;;;;;;;;4930200;29;20056;-63
2023/03/08 05:06:21;;;;;;;4.82;1.55;;;;;;;;;;4911307;29;20060;-64
2023/03/08 05:08:55;;;;;;;5.32;1.23;;;;;;;;;;4946406;29;20058;-63
2023/03/08 05:11:27;;;;;;;2.78;1.50;;;;;;;;;;4908223;29;20495;-63
2023/03/08 05:13:59;;;;;;;4.10;1.20;;;;;;;;;;4853097;29;20062;-63
2023/03/08 05:16:29;;;;;;;5.57;1.48;;;;;;;;;;4866874;29;20061;-63
2023/03/08 05:19:02;;;;;;;4.57;1.42;;;;;;;;;;4844596;29;20061;-64
2023/03/08 05:21:37;;;;;;;4.05;1.33;;;;;;;;;;4837898;29;21093;-63
2023/03/08 05:24:07;;;;;;;4.45;1.45;;;;;;;;;;4890721;29;20521;-63
2023/03/08 05:26:38;;;;;;;3.80;1.27;;;;;;;;;;4860589;29;20656;-63
2023/03/08 05:29:10;;;;;;;7.63;1.17;;;;;;;;;;4866121;29;20064;-64
2023/03/08 05:31:42;;;;;;;6.32;1.30;;;;;;;;;;4839659;29;20066;-63
2023/03/08 05:34:14;;;;;;;4.70;1.65;;;;;;;;;;4856814;29;20065;-63
2023/03/08 05:36:47;;;;;;;5.43;1.35;;;;;;;;;;4848976;29;20594;-63
2023/03/08 05:39:17;;;;;;;2.80;1.20;;;;;;;;;;4822529;29;20593;-63
2023/03/08 05:41:56;;;;;;;6.20;1.95;;;;;;;;;;4867371;29;20930;-63
2023/03/08 05:44:32;;;;;;;2.88;1.23;;;;;;;;;;4892736;29;20060;-65
2023/03/08 05:47:03;;;;;;;5.65;1.38;;;;;;;;;;4908376;29;20882;-63
2023/03/08 05:49:32;;;;;;;5.85;1.30;;;;;;;;;;4925979;29;20669;-64
2023/03/08 05:52:03;;;;;;;2.08;1.23;;;;;;;;;;4907747;29;20056;-64
2023/03/08 05:54:35;;;;;;;5.63;1.75;;;;;;;;;;4878810;29;20057;-64
2023/03/08 05:57:10;;;;;;;3.42;1.52;;;;;;;;;;4877264;29;20060;-64
2023/03/08 05:59:40;;;;;;;9.35;1.67;;;;;;;;;;4915367;29;20554;-64
2023/03/08 06:02:13;;;;;;;8.02;1.60;;;;;;;;;;4930614;29;20062;-64
2023/03/08 06:04:47;;;;;;;3.92;1.30;;;;;;;;;;4879260;29;20072;-63
2023/03/08 06:07:20;;;;;;;7.47;1.40;;;;;;;;;;4891080;29;20056;-64
2023/03/08 06:09:57;;;;;;;4.00;1.33;;;;;;;;;;4813594;29;20073;-63
2023/03/08 06:12:27;;;;;;;3.13;1.30;;;;;;;;;;4817658;29;20064;-63
2023/03/08 06:15:00;;;;;;;4.05;1.42;;;;;;;;;;4834168;29;20081;-64
2023/03/08 06:17:34;;;;;;;4.95;1.40;;;;;;;;;;4828326;29;20058;-64
2023/03/08 06:20:07;;;;;;;3.67;1.33;;;;;;;;;;4836100;29;20057;-64
2023/03/08 06:22:40;;;;;;;4.32;1.48;;;;;;;;;;4794343;29;20548;-63
2023/03/08 06:25:14;;;;;;;2.92;1.30;;;;;;;;;;4805288;29;20058;-64
2023/03/08 06:27:44;;;;;;;4.85;1.17;;;;;;;;;;4812967;29;20097;-64
2023/03/08 06:30:24;;;;;;;4.45;1.90;;;;;;;;;;4796651;29;20055;-64
2023/03/08 06:32:54;;;;;;;4.70;1.33;;;;;;;;;;4815582;29;20079;-63
2023/03/08 06:35:24;;;;;;;3.53;1.50;;;;;;;;;;4770751;29;20240;-64
2023/03/08 06:37:59;;;;;;;6.82;1.58;;;;;;;;;;4794565;29;20067;-64
2023/03/08 06:40:29;;;;;;;4.30;1.42;;;;;;;;;;4817575;29;20406;-63
2023/03/08 06:43:00;;;;;;;5.60;1.38;;;;;;;;;;4836470;29;20081;-64
2023/03/08 06:45:30;;;;;;;2.22;1.02;;;;;;;;;;4828135;29;20046;-64
2023/03/08 06:48:01;;;;;;;4.80;1.75;;;;;;;;;;4858593;29;20061;-64
2023/03/08 06:50:32;;;;;;;4.90;1.42;;;;;;;;;;4834430;29;20534;-64
2023/03/08 06:53:03;;;;;;;;;;;;;;;;;;4836791;29;20125;-64
2023/03/08 06:55:53;;;;;;;6.47;1.50;;;;;;;;;;4836097;29;19935;-64
2023/03/08 06:58:23;;;;;;;4.22;1.08;;;;;;;;;;4873052;29;20142;-63
2023/03/08 07:00:54;;;;;;;3.83;1.40;;;;;;;;;;4875084;29;20804;-64
2023/03/08 07:03:24;;;;;;;7.28;1.42;;;;;;;;;;4847963;29;20069;-64
2023/03/08 07:06:08;;;;;;;4.28;1.55;;;;;;;;;;4883905;29;20060;-64
2023/03/08 07:08:38;;;;;;;7.57;1.63;;;;;;;;;;4895968;29;20052;-64
2023/03/08 07:11:09;;;;;;;6.75;1.70;;;;;;;;;;4895651;29;20053;-64
2023/03/08 07:13:39;;;;;;;4.72;1.48;;;;;;;;;;4892677;29;20068;-65
2023/03/08 07:16:10;;;;;;;2.50;1.33;;;;;;;;;;4897141;29;20986;-64
2023/03/08 07:18:41;;;;;;;4.15;1.17;;;;;;;;;;4923761;29;20679;-64
2023/03/08 07:21:11;;;;;;;3.72;1.17;;;;;;;;;;4929970;29;20460;-64
2023/03/08 07:23:41;;;;;;;3.97;1.05;;;;;;;;;;4930404;29;20445;-63
2023/03/08 07:26:11;;;;;;;4.75;1.50;;;;;;;;;;4968119;28;20061;-64
2023/03/08 07:28:41;;;;;;;6.47;1.33;;;;;;;;;;5014424;28;20718;-64
2023/03/08 07:31:11;;;;;;;6.82;1.33;;;;;;;;;;5030928;28;20053;-64
2023/03/08 07:33:41;;;;;;;4.60;1.70;;;;;;;;;;5030110;28;20053;-64
2023/03/08 07:36:11;;;;;;;4.65;1.55;;;;;;;;;;5017236;28;20065;-64
2023/03/08 07:38:40;;;;;;;3.40;1.23;;;;;;;;;;4990507;28;20069;-65
2023/03/08 07:41:10;;;;;;;3.30;1.15;;;;;;;;;;5010032;28;20513;-64
2023/03/08 07:43:40;;;;;;;4.50;1.02;;;;;;;;;;5023458;28;20684;-64
2023/03/08 07:46:14;;;;;;;2.20;1.30;;;;;;;;;;5011232;28;20046;-64
2023/03/08 07:48:44;;;;;;;3.90;1.50;;;;;;;;;;5013310;28;20049;-64
2023/03/08 07:51:14;;;;;;;7.43;2.03;;;;;;;;;;5013529;28;20050;-64
2023/03/08 07:53:43;;;;;;;2.55;1.30;;;;;;;;;;4993222;28;20058;-64
2023/03/08 07:56:13;;;;;;;5.43;1.45;;;;;;;;;;5008370;28;20073;-64
2023/03/08 07:58:43;;;;;;;4.20;1.35;;;;;;;;;;5005679;28;20069;-64
2023/03/08 08:01:13;;;;;;;4.47;1.40;;;;;;;;;;5006029;28;20070;-64
2023/03/08 08:03:44;;;;;;;6.38;1.48;;;;;;;;;;5045798;28;20061;-64
2023/03/08 08:06:14;;;;;;;7.30;1.45;;;;;;;;;;5046080;28;20057;-64
2023/03/08 08:08:45;;;;;;;4.30;1.45;;;;;;;;;;5032176;28;20524;-64
2023/03/08 08:11:16;;;;;;;3.35;1.48;;;;;;;;;;5016523;28;20057;-64
2023/03/08 08:13:47;;;;;;;3.35;1.73;;;;;;;;;;5000714;28;20065;-64
2023/03/08 08:16:17;;;;;;;3.28;1.55;;;;;;;;;;5016616;28;20057;-64
2023/03/08 08:18:47;;;;;;;2.78;1.67;;;;;;;;;;4997229;28;20064;-64
2023/03/08 08:21:16;;;;;;;5.53;1.90;;;;;;;;;;4997354;28;20083;-63
2023/03/08 08:23:48;;;;;;;2.95;1.42;;;;;;;;;;5045254;28;20052;-65
2023/03/08 08:26:20;;;;;;;3.42;1.58;;;;;;;;;;5045368;28;20065;-64
2023/03/08 08:28:53;;;;;;;3.47;2.17;;;;;;;;;;5046339;28;20057;-64
2023/03/08 08:31:27;;;;;;;4.50;1.70;;;;;;;;;;5018058;28;20061;-64
2023/03/08 08:33:58;;;;;;;4.43;1.23;;;;;;;;;;5049553;28;20556;-64
2023/03/08 08:36:28;;;;;;;1.83;1.02;;;;;;;;;;5049409;28;20072;-64
2023/03/08 08:38:59;;;;;;;5.28;1.23;;;;;;;;;;4999003;28;20069;-64
2023/03/08 08:41:31;;;;;;;2.85;1.20;;;;;;;;;;4991846;28;20046;-64
2023/03/08 08:44:01;;;;;;;4.75;1.60;;;;;;;;;;5005934;28;20072;-64
2023/03/08 08:46:33;;;;;;;2.83;1.33;;;;;;;;;;5005368;28;20061;-64
2023/03/08 08:49:04;;;;;;;;;;;;;;;;;;5006042;28;20773;-63
2023/03/08 08:51:34;;;;;;;5.20;1.38;;;;;;;;;;4959329;28;19929;-63
2023/03/08 08:54:04;;;;;;;5.13;1.70;;;;;;;;;;5008648;28;20436;-63
2023/03/08 08:56:41;;;;;;;3.50;1.50;;;;;;;;;;4977406;28;20065;-63
2023/03/08 08:59:12;;;;;;;2.83;1.58;;;;;;;;;;4960849;28;20145;-63
2023/03/08 09:01:45;;;;;;;5.05;1.73;;;;;;;;;;5006643;28;20822;-64
2023/03/08 09:04:15;;;;;;;6.43;1.30;;;;;;;;;;5005560;28;20659;-63
2023/03/08 09:06:46;;;;;;;6.43;1.42;;;;;;;;;;5005272;28;20056;-64
2023/03/08 09:09:17;;;;;;;4.82;1.73;;;;;;;;;;5004387;28;20064;-64
2023/03/08 09:11:47;;;;;;;6.20;1.70;;;;;;;;;;5006931;28;20066;-63
2023/03/08 09:14:24;;;;;;;4.50;1.70;;;;;;;;;;5011581;28;20406;-64
2023/03/08 09:16:54;;;;;;;5.10;1.95;;;;;;;;;;5011591;28;20398;-64
2023/03/08 09:19:24;;;;;;;5.22;1.70;;;;;;;;;;5011979;28;20057;-63
2023/03/08 09:21:54;;;;;;;9.02;1.88;;;;;;;;;;5011585;28;20409;-64
2023/03/08 09:24:24;;;;;;;4.90;1.92;;;;;;;;;;4988201;28;20057;-63
2023/03/08 09:26:54;;;;;;;5.05;2.10;;;;;;;;;;4973043;28;20522;-64
2023/03/08 09:29:23;;;;;;;5.50;1.98;;;;;;;;;;5007787;28;20837;-63
2023/03/08 09:31:53;;;;;;;8.45;1.98;;;;;;;;;;5007591;28;20521;-64
2023/03/08 09:34:26;;;;;;;;;;;;;;;;;;4958625;28;20592;-63
2023/03/08 09:36:57;;;;;;;;;;;;;;;;;;5025743;28;19928;-64
2023/03/08 09:39:26;;;;;;;3.03;1.67;;;;;;;;;;5011395;28;19937;-64
2023/03/08 09:42:02;;;;;;;3.38;1.75;;;;;;;;;;5008736;28;20057;-64
2023/03/08 09:44:44;;;;;;;9.32;2.13;;;;;;;;;;5009634;28;20054;-64
2023/03/08 09:47:24;;;;;;;4.13;2.17;;;;;;;;;;5004991;28;20064;-64
2023/03/08 09:50:09;;;;;;;7.95;2.28;;;;;;;;;;5007794;28;20096;-64
2023/03/08 09:52:45;;;;;;;7.68;2.17;;;;;;;;;;5034460;28;20498;-64
2023/03/08 09:55:33;;;;;;;7.72;2.17;;;;;;;;;;5037132;28;20060;-64
2023/03/08 09:58:30;;;;;;;5.82;2.00;;;;;;;;;;4975994;28;20054;-64
2023/03/08 10:01:26;;;;;;;9.30;2.03;;;;;;;;;;5007987;28;20069;-64
2023/03/08 10:04:21;;;;;;;5.80;2.65;;;;;;;;;;4930645;29;20055;-64
2023/03/08 10:07:42;;;;;;;4.50;1.70;;;;;;;;;;4927292;29;20062;-65
2023/03/08 10:10:27;;;;;;;5.68;1.75;;;;;;;;;;4892341;29;20059;-63
2023/03/08 10:13:08;;;;;;;3.95;2.10;;;;;;;;;;4907822;29;20193;-64
2023/03/08 10:15:43;;;;;;;5.35;1.77;;;;;;;;;;4907141;29;20083;-64
2023/03/08 10:18:42;;;;;;;5.47;1.95;;;;;;;;;;4893581;29;20730;-63
2023/03/08 10:21:16;;;;;;;4.70;1.95;;;;;;;;;;4911072;29;20531;-64
2023/03/08 10:23:50;;;;;;;8.88;2.05;;;;;;;;;;4895380;29;20064;-64
2023/03/08 10:26:20;;;;;;;6.20;1.88;;;;;;;;;;4911935;29;20170;-64
2023/03/08 10:28:50;;;;;;;3.58;1.88;;;;;;;;;;4908809;29;20056;-65
2023/03/08 10:31:22;;;;;;;6.50;2.15;;;;;;;;;;4892344;29;20052;-64
2023/03/08 10:34:11;;;;;;;6.78;2.00;;;;;;;;;;4925868;29;20048;-64
2023/03/08 10:36:59;;;;;;;6.85;2.22;;;;;;;;;;4911221;29;20052;-63
2023/03/08 10:39:29;;;;;;;5.88;1.70;;;;;;;;;;4880527;29;20075;-63
2023/03/08 10:42:05;;;;;;;4.78;2.38;;;;;;;;;;5000171;28;20077;-64
2023/03/08 10:44:58;;;;;;;5.63;2.17;;;;;;;;;;5006283;28;20054;-63
2023/03/08 10:47:35;;;;;;;6.57;2.03;;;;;;;;;;5006768;28;20418;-64
2023/03/08 10:50:14;;;;;;;7.25;2.53;;;;;;;;;;5006549;28;20057;-64
2023/03/08 10:52:46;;;;;;;9.95;2.55;;;;;;;;;;4971351;28;20062;-63
2023/03/08 10:55:18;;;;;;;9.70;2.42;;;;;;;;;;5007889;28;20053;-63
2023/03/08 10:58:00;;;;;;;7.97;2.15;;;;;;;;;;5010538;28;20042;-63
2023/03/08 11:00:43;;;;;;;5.07;2.47;;;;;;;;;;5010161;28;20061;-63
2023/03/08 11:03:17;;;;;;;8.43;2.28;;;;;;;;;;5010101;28;20426;-63
2023/03/08 11:06:00;;;;;;;6.18;2.35;;;;;;;;;;4989087;28;20046;-65
2023/03/08 11:08:38;;;;;;;4.65;1.88;;;;;;;;;;5006681;28;20401;-64
2023/03/08 11:11:13;;;;;;;4.15;1.83;;;;;;;;;;5006416;28;20050;-65
2023/03/08 11:13:48;;;;;;;6.35;2.25;;;;;;;;;;5006422;28;20045;-64
2023/03/08 11:16:33;;;;;;;8.75;2.30;;;;;;;;;;4988245;28;20533;-64
2023/03/08 11:19:37;;;;;;;6.85;2.53;;;;;;;;;;5010106;28;20058;-64
2023/03/08 11:22:16;;;;;;;8.75;2.17;;;;;;;;;;4987642;28;20193;-64
2023/03/08 11:24:56;;;;;;;;;;;;;;;;;;4939504;28;20062;-64
2023/03/08 11:27:38;;;;;;;8.30;1.70;;;;;;;;;;4985145;28;19925;-65
2023/03/08 11:30:32;;;;;;;8.40;1.85;;;;;;;;;;4925432;29;20059;-65
2023/03/08 11:33:15;;;;;;;6.65;1.95;;;;;;;;;;4928981;29;20210;-64
2023/03/08 11:35:55;;;;;;;3.50;1.58;;;;;;;;;;4929105;29;20059;-64
2023/03/08 11:38:28;;;;;;;3.92;2.45;;;;;;;;;;4892674;29;20076;-65
2023/03/08 11:41:36;;;;;;;3.40;1.55;;;;;;;;;;4864625;29;20067;-64
2023/03/08 11:44:37;;;;;;;2.92;1.70;;;;;;;;;;4895587;29;20068;-64
2023/03/08 11:47:43;;;;;;;3.28;1.33;;;;;;;;;;4895572;29;20053;-64
2023/03/08 11:50:23;;;;;;;6.85;1.67;;;;;;;;;;4875936;29;20626;-65
2023/03/08 11:52:59;;;;;;;4.72;1.73;;;;;;;;;;4891465;29;20057;-64
2023/03/08 11:55:56;;;;;;;6.13;1.75;;;;;;;;;;4890697;29;20106;-64
2023/03/08 11:58:39;;;;;;;5.68;2.20;;;;;;;;;;4846875;29;20075;-65
2023/03/08 12:01:32;;;;;;;5.72;2.08;;;;;;;;;;4937120;28;20101;-64
2023/03/08 12:04:16;;;;;;;4.75;1.65;;;;;;;;;;4974861;28;20776;-64
2023/03/08 12:06:48;;;;;;;6.07;1.52;;;;;;;;;;4958818;28;20069;-63
2023/03/08 12:09:27;;;;;;;3.70;1.63;;;;;;;;;;4990404;28;20065;-64
2023/03/08 12:12:09;;;;;;;3.00;1.50;;;;;;;;;;4954403;28;20062;-65
2023/03/08 12:14:54;;;;;;;4.05;1.58;;;;;;;;;;4986441;28;20065;-65
2023/03/08 12:17:41;;;;;;;14.60;1.90;;;;;;;;;;5009042;28;20056;-65
2023/03/08 12:20:14;;;;;;;5.20;1.70;;;;;;;;;;5009032;28;20065;-65
2023/03/08 12:22:57;;;;;;;3.45;1.60;;;;;;;;;;5011866;28;20050;-65
2023/03/08 12:25:34;;;;;;;8.23;1.75;;;;;;;;;;5041372;28;20058;-64
2023/03/08 12:28:23;;;;;;;4.57;1.92;;;;;;;;;;5009905;28;20506;-65
2023/03/08 12:31:23;;;;;;;6.10;1.98;;;;;;;;;;5012963;28;20077;-65
2023/03/08 12:33:58;;;;;;;4.70;1.33;;;;;;;;;;5008803;28;20053;-65
2023/03/08 12:36:40;;;;;;;5.60;1.70;;;;;;;;;;5008830;28;20060;-65
2023/03/08 12:39:34;;;;;;;5.40;1.35;;;;;;;;;;5004822;28;20069;-66
2023/03/08 12:42:10;;;;;;;2.67;1.20;;;;;;;;;;5005774;28;20068;-66
2023/03/08 12:44:40;;;;;;;4.82;1.05;;;;;;;;;;4976138;28;20069;-65
2023/03/08 12:47:13;;;;;;;2.30;1.13;;;;;;;;;;5012509;28;20402;-66
2023/03/08 12:49:50;;;;;;;3.00;1.25;;;;;;;;;;5012063;28;20057;-65
2023/03/08 12:52:21;;;;;;;3.13;1.35;;;;;;;;;;5012175;28;20046;-64
2023/03/08 12:55:09;;;;;;;3.00;1.38;;;;;;;;;;5008782;28;20053;-64
2023/03/08 12:57:53;;;;;;;2.67;1.20;;;;;;;;;;5004788;28;20088;-65
2023/03/08 13:00:26;;;;;;;2.20;1.30;;;;;;;;;;5008541;28;20056;-64
2023/03/08 13:03:26;;;;;;;2.10;1.13;;;;;;;;;;5008539;28;20624;-65
2023/03/08 13:05:55;;;;;;;5.57;1.45;;;;;;;;;;5010548;28;20054;-64
2023/03/08 13:08:35;;;;;;;2.38;1.20;;;;;;;;;;5026162;28;20505;-64
2023/03/08 13:11:11;;;;;;;3.58;1.35;;;;;;;;;;5011840;28;20061;-65
2023/03/08 13:13:50;;;;;;;3.63;1.50;;;;;;;;;;5011397;28;20037;-64
2023/03/08 13:16:33;;;;;;;1.65;1.02;;;;;;;;;;5009194;28;20049;-65
2023/03/08 13:19:05;;;;;;;2.55;1.15;;;;;;;;;;5036310;28;20065;-65
2023/03/08 13:21:40;;;;;;;1.33;0.90;;;;;;;;;;5055216;28;20081;-65
2023/03/08 13:24:16;;;;;;;2.33;1.10;;;;;;;;;;4972296;28;20062;-66
2023/03/08 13:27:13;;;;;;;1.75;0.80;;;;;;;;;;5008635;28;20046;-65
2023/03/08 13:29:46;;;;;;;2.13;1.02;;;;;;;;;;5011935;28;20042;-65
2023/03/08 13:32:22;;;;;;;1.80;1.10;;;;;;;;;;5011530;28;20431;-64
2023/03/08 13:35:00;;;;;;;2.78;1.15;;;;;;;;;;5011167;28;20042;-65
2023/03/08 13:37:31;;;;;;;;;;;;;;;;;;5005430;28;20061;-65
2023/03/08 13:40:01;;;;;;;3.92;1.20;;;;;;;;;;5008131;28;19925;-66
2023/03/08 13:42:30;;;;;;;2.75;1.05;;;;;;;;;;5005934;28;20050;-65
2023/03/08 13:45:16;;;;;;;4.38;1.20;;;;;;;;;;5007395;28;20807;-65
2023/03/08 13:47:48;;;;;;;2.80;1.08;;;;;;;;;;5036364;28;20058;-64
2023/03/08 13:50:31;;;;;;;2.53;1.55;;;;;;;;;;5011259;28;20049;-65
2023/03/08 13:53:06;;;;;;;3.33;1.23;;;;;;;;;;5039889;28;20060;-64
2023/03/08 13:55:43;;;;;;;1.92;1.20;;;;;;;;;;5040352;28;20425;-64
2023/03/08 13:58:26;;;;;;;2.85;1.20;;;;;;;;;;4991274;28;20049;-65
2023/03/08 14:01:18;;;;;;;2.25;1.20;;;;;;;;;;5054748;28;20563;-64
2023/03/08 14:03:50;;;;;;;3.95;1.10;;;;;;;;;;5003932;28;20057;-65
2023/03/08 14:06:28;;;;;;;1.40;0.93;;;;;;;;;;5004214;28;20069;-64
2023/03/08 14:09:01;;;;;;;2.03;0.95;;;;;;;;;;5004024;28;20073;-63
2023/03/08 14:11:36;;;;;;;1.85;1.02;;;;;;;;;;4958636;28;20061;-65
2023/03/08 14:14:13;;;;;;;2.42;1.20;;;;;;;;;;5008076;28;20053;-64
2023/03/08 14:16:43;;;;;;;1.73;1.08;;;;;;;;;;5008433;28;20048;-64
2023/03/08 14:19:13;;;;;;;3.08;1.42;;;;;;;;;;5008082;28;20156;-65
2023/03/08 14:21:55;;;;;;;3.17;1.30;;;;;;;;;;5004619;28;20049;-64
2023/03/08 14:24:28;;;;;;;3.00;1.23;;;;;;;;;;5003422;28;20049;-64
2023/03/08 14:27:01;;;;;;;2.85;1.15;;;;;;;;;;5003410;28;20053;-65
2023/03/08 14:29:35;;;;;;;2.67;1.23;;;;;;;;;;5004169;28;20068;-64
2023/03/08 14:32:05;;;;;;;3.67;1.52;;;;;;;;;;5005435;28;20532;-65
2023/03/08 14:34:38;;;;;;;2.75;1.25;;;;;;;;;;5007587;28;20057;-64
2023/03/08 14:37:11;;;;;;;1.92;1.10;;;;;;;;;;5007993;28;20042;-64
2023/03/08 14:39:43;;;;;;;2.53;1.30;;;;;;;;;;4994358;28;20054;-64
2023/03/08 14:42:34;;;;;;;3.05;1.25;;;;;;;;;;4996184;28;20050;-65
2023/03/08 14:45:17;;;;;;;4.43;1.02;;;;;;;;;;5070821;28;20054;-65
2023/03/08 14:47:59;;;;;;;3.03;1.23;;;;;;;;;;5019100;28;20050;-66
2023/03/08 14:50:33;;;;;;;2.80;1.30;;;;;;;;;;5015431;28;20057;-66
2023/03/08 14:53:22;;;;;;;3.60;1.50;;;;;;;;;;5023330;28;20053;-66
2023/03/08 14:55:52;;;;;;;2.47;1.52;;;;;;;;;;4994292;28;20575;-64
2023/03/08 14:58:26;;;;;;;4.30;1.45;;;;;;;;;;4977273;28;20064;-65
2023/03/08 15:01:00;;;;;;;4.28;1.30;;;;;;;;;;5026866;28;20049;-65
2023/03/08 15:03:33;;;;;;;2.25;1.25;;;;;;;;;;5026087;28;20665;-66
2023/03/08 15:06:19;;;;;;;2.45;1.10;;;;;;;;;;5023752;28;20053;-64
2023/03/08 15:08:50;;;;;;;2.55;1.02;;;;;;;;;;5026594;28;20053;-65
2023/03/08 15:11:20;;;;;;;1.17;0.82;;;;;;;;;;4993720;28;20068;-64
2023/03/08 15:13:50;;;;;;;2.63;1.25;;;;;;;;;;5026641;28;20060;-65
2023/03/08 15:16:20;;;;;;;1.98;1.02;;;;;;;;;;5029340;28;20050;-64
2023/03/08 15:18:50;;;;;;;5.13;1.02;;;;;;;;;;5013506;28;20049;-64
2023/03/08 15:21:28;;;;;;;2.17;1.38;;;;;;;;;;5030593;28;20498;-64
2023/03/08 15:23:59;;;;;;;2.70;1.20;;;;;;;;;;5028688;28;20555;-64
2023/03/08 15:26:30;;;;;;;2.88;1.20;;;;;;;;;;4984447;28;20054;-65
2023/03/08 15:29:02;;;;;;;4.45;1.67;;;;;;;;;;5024543;28;20057;-64